sensor_id;sensor_type;location;lat;lon;timestamp;pressure;altitude;pressure_sealevel;temperature;humidity
43701;BME280;58809;47.984;7.964;2023-04-28T00:02:53;96970.13;;;16.57;nan
43701;BME280;58809;47.984;7.964;2023-04-28T00:05:55;96972.25;;;16.66;nan
43701;BME280;58809;47.984;7.964;2023-04-28T00:08:56;96975.41;;;16.63;nan
43701;BME280;58809;47.984;7.964;2023-04-28T00:11:58;96969.25;;;16.44;nan
43701;BME280;58809;47.984;7.964;2023-04-28T00:15:00;96964.22;;;16.36;nan
43701;BME280;58809;47.984;7.964;2023-04-28T00:18:01;96952.47;;;16.37;nan
43701;BME280;58809;47.984;7.964;2023-04-28T00:21:03;96964.66;;;16.33;nan
43701;BME280;58809;47.984;7.964;2023-04-28T00:24:05;96946.66;;;16.28;nan
43701;BME280;58809;47.984;7.964;2023-04-28T00:27:06;96949.59;;;16.20;nan
43701;BME280;58809;47.984;7.964;2023-04-28T00:30:08;96940.94;;;16.25;nan
43701;BME280;58809;47.984;7.964;2023-04-28T00:33:10;96940.94;;;16.25;nan
43701;BME280;58809;47.984;7.964;2023-04-28T00:36:11;96935.72;;;16.30;nan
43701;BME280;58809;47.984;7.964;2023-04-28T00:39:14;96930.91;;;16.39;nan
43701;BME280;58809;47.984;7.964;2023-04-28T00:42:16;96932.53;;;16.40;nan
43701;BME280;58809;47.984;7.964;2023-04-28T00:45:17;96917.97;;;16.35;nan
43701;BME280;58809;47.984;7.964;2023-04-28T00:48:19;96919.19;;;16.40;nan
43701;BME280;58809;47.984;7.964;2023-04-28T00:51:21;96919.81;;;16.53;nan
43701;BME280;58809;47.984;7.964;2023-04-28T00:54:22;96926.22;;;16.52;nan
43701;BME280;58809;47.984;7.964;2023-04-28T00:57:24;96925.72;;;16.44;nan
43701;BME280;58809;47.984;7.964;2023-04-28T01:00:25;96922.59;;;16.47;nan
43701;BME280;58809;47.984;7.964;2023-04-28T01:03:27;96916.06;;;16.43;nan
43701;BME280;58809;47.984;7.964;2023-04-28T01:06:30;96915.97;;;16.49;nan
43701;BME280;58809;47.984;7.964;2023-04-28T01:09:34;96926.28;;;16.46;nan
43701;BME280;58809;47.984;7.964;2023-04-28T01:12:36;96930.97;;;16.50;nan
43701;BME280;58809;47.984;7.964;2023-04-28T01:15:38;96925.16;;;16.53;nan
43701;BME280;58809;47.984;7.964;2023-04-28T01:18:46;96938.72;;;16.52;nan
43701;BME280;58809;47.984;7.964;2023-04-28T01:21:49;96940.91;;;16.43;nan
43701;BME280;58809;47.984;7.964;2023-04-28T01:24:54;96952.25;;;16.39;nan
43701;BME280;58809;47.984;7.964;2023-04-28T01:27:56;96965.31;;;16.10;nan
43701;BME280;58809;47.984;7.964;2023-04-28T01:30:58;96970.63;;;15.91;nan
43701;BME280;58809;47.984;7.964;2023-04-28T01:34:00;96974.25;;;15.78;nan
43701;BME280;58809;47.984;7.964;2023-04-28T01:37:01;96972.44;;;15.72;nan
43701;BME280;58809;47.984;7.964;2023-04-28T01:40:03;96984.81;;;15.67;nan
43701;BME280;58809;47.984;7.964;2023-04-28T01:43:05;96984.81;;;15.67;nan
43701;BME280;58809;47.984;7.964;2023-04-28T01:46:07;96990.53;;;15.70;nan
43701;BME280;58809;47.984;7.964;2023-04-28T01:49:08;97001.41;;;15.69;nan
43701;BME280;58809;47.984;7.964;2023-04-28T01:52:10;97006.31;;;15.72;nan
43701;BME280;58809;47.984;7.964;2023-04-28T01:55:11;97014.94;;;15.67;nan
43701;BME280;58809;47.984;7.964;2023-04-28T01:58:13;97019.97;;;15.57;nan
43701;BME280;58809;47.984;7.964;2023-04-28T02:01:15;97014.66;;;15.57;nan
43701;BME280;58809;47.984;7.964;2023-04-28T02:04:17;97024.53;;;15.50;nan
43701;BME280;58809;47.984;7.964;2023-04-28T02:07:19;97017.94;;;15.52;nan
43701;BME280;58809;47.984;7.964;2023-04-28T02:10:20;97016.22;;;15.65;nan
43701;BME280;58809;47.984;7.964;2023-04-28T02:13:23;97019.84;;;15.70;nan
43701;BME280;58809;47.984;7.964;2023-04-28T02:16:26;97024.78;;;15.73;nan
43701;BME280;58809;47.984;7.964;2023-04-28T02:19:28;97025.25;;;15.64;nan
43701;BME280;58809;47.984;7.964;2023-04-28T02:22:29;97023.28;;;15.52;nan
43701;BME280;58809;47.984;7.964;2023-04-28T02:25:32;97009.78;;;15.47;nan
43701;BME280;58809;47.984;7.964;2023-04-28T02:28:34;97004.50;;;15.40;nan
43701;BME280;58809;47.984;7.964;2023-04-28T02:31:35;96998.69;;;15.50;nan
43701;BME280;58809;47.984;7.964;2023-04-28T02:34:37;97004.34;;;15.61;nan
43701;BME280;58809;47.984;7.964;2023-04-28T02:37:38;97005.00;;;15.56;nan
43701;BME280;58809;47.984;7.964;2023-04-28T02:40:40;96998.47;;;15.52;nan
43701;BME280;58809;47.984;7.964;2023-04-28T02:43:41;96999.97;;;15.41;nan
43701;BME280;58809;47.984;7.964;2023-04-28T02:46:43;97006.50;;;15.45;nan
43701;BME280;58809;47.984;7.964;2023-04-28T02:49:45;96992.69;;;15.55;nan
43701;BME280;58809;47.984;7.964;2023-04-28T02:52:46;96988.78;;;15.57;nan
43701;BME280;58809;47.984;7.964;2023-04-28T02:55:49;96989.59;;;15.58;nan
43701;BME280;58809;47.984;7.964;2023-04-28T02:58:51;96986.03;;;15.64;nan
43701;BME280;58809;47.984;7.964;2023-04-28T03:01:53;96973.53;;;15.65;nan
43701;BME280;58809;47.984;7.964;2023-04-28T03:04:54;96974.41;;;15.58;nan
43701;BME280;58809;47.984;7.964;2023-04-28T03:07:56;96976.63;;;15.62;nan
43701;BME280;58809;47.984;7.964;2023-04-28T03:10:57;96973.16;;;15.61;nan
43701;BME280;58809;47.984;7.964;2023-04-28T03:13:59;96990.94;;;15.67;nan
43701;BME280;58809;47.984;7.964;2023-04-28T03:17:01;96978.59;;;15.73;nan
43701;BME280;58809;47.984;7.964;2023-04-28T03:20:04;96976.75;;;15.73;nan
43701;BME280;58809;47.984;7.964;2023-04-28T03:23:06;96975.53;;;15.69;nan
43701;BME280;58809;47.984;7.964;2023-04-28T03:26:08;96974.72;;;15.69;nan
43701;BME280;58809;47.984;7.964;2023-04-28T03:29:09;96965.25;;;15.73;nan
43701;BME280;58809;47.984;7.964;2023-04-28T03:32:12;96965.25;;;15.73;nan
43701;BME280;58809;47.984;7.964;2023-04-28T03:35:13;96967.50;;;15.76;nan
43701;BME280;58809;47.984;7.964;2023-04-28T03:38:15;96964.84;;;15.76;nan
43701;BME280;58809;47.984;7.964;2023-04-28T03:41:17;96961.59;;;15.74;nan
43701;BME280;58809;47.984;7.964;2023-04-28T03:44:37;96968.38;;;15.70;nan
43701;BME280;58809;47.984;7.964;2023-04-28T03:47:40;96965.06;;;15.68;nan
43701;BME280;58809;47.984;7.964;2023-04-28T03:50:42;96956.78;;;15.57;nan
43701;BME280;58809;47.984;7.964;2023-04-28T03:53:45;96955.81;;;15.52;nan
43701;BME280;58809;47.984;7.964;2023-04-28T03:56:47;96950.09;;;15.48;nan
43701;BME280;58809;47.984;7.964;2023-04-28T03:59:49;96940.19;;;15.55;nan
43701;BME280;58809;47.984;7.964;2023-04-28T04:02:51;96932.22;;;15.49;nan
43701;BME280;58809;47.984;7.964;2023-04-28T04:05:53;96933.13;;;15.43;nan
43701;BME280;58809;47.984;7.964;2023-04-28T04:08:56;96934.13;;;15.42;nan
43701;BME280;58809;47.984;7.964;2023-04-28T04:11:57;96936.38;;;15.45;nan
43701;BME280;58809;47.984;7.964;2023-04-28T04:14:59;96930.38;;;15.49;nan
43701;BME280;58809;47.984;7.964;2023-04-28T04:18:00;96935.94;;;15.48;nan
43701;BME280;58809;47.984;7.964;2023-04-28T04:21:10;96936.09;;;15.53;nan
43701;BME280;58809;47.984;7.964;2023-04-28T04:24:12;96934.69;;;15.50;nan
43701;BME280;58809;47.984;7.964;2023-04-28T04:27:13;96934.69;;;15.50;nan
43701;BME280;58809;47.984;7.964;2023-04-28T04:30:15;96933.53;;;15.65;nan
43701;BME280;58809;47.984;7.964;2023-04-28T04:33:16;96926.47;;;15.77;nan
43701;BME280;58809;47.984;7.964;2023-04-28T04:36:19;96937.16;;;15.77;nan
43701;BME280;58809;47.984;7.964;2023-04-28T04:39:21;96941.16;;;15.61;nan
43701;BME280;58809;47.984;7.964;2023-04-28T04:42:22;96932.56;;;15.59;nan
43701;BME280;58809;47.984;7.964;2023-04-28T04:45:44;96948.34;;;15.61;nan
43701;BME280;58809;47.984;7.964;2023-04-28T04:48:47;96945.69;;;15.61;nan
43701;BME280;58809;47.984;7.964;2023-04-28T04:51:48;96953.88;;;15.84;nan
43701;BME280;58809;47.984;7.964;2023-04-28T04:54:50;96935.94;;;15.91;nan
43701;BME280;58809;47.984;7.964;2023-04-28T04:57:52;96943.25;;;16.03;nan
43701;BME280;58809;47.984;7.964;2023-04-28T05:01:42;96947.25;;;12.96;100.00
43701;BME280;58809;47.984;7.964;2023-04-28T05:04:44;96937.53;;;12.55;100.00
43701;BME280;58809;47.984;7.964;2023-04-28T05:07:48;96945.22;;;12.29;100.00
43701;BME280;58809;47.984;7.964;2023-04-28T05:10:50;96934.81;;;12.28;100.00
43701;BME280;58809;47.984;7.964;2023-04-28T05:13:53;96933.00;;;12.35;100.00
43701;BME280;58809;47.984;7.964;2023-04-28T05:16:54;96934.47;;;12.44;100.00
43701;BME280;58809;47.984;7.964;2023-04-28T05:19:59;96936.50;;;12.42;100.00
43701;BME280;58809;47.984;7.964;2023-04-28T05:23:00;96931.00;;;12.50;100.00
43701;BME280;58809;47.984;7.964;2023-04-28T05:26:03;96932.66;;;12.58;100.00
43701;BME280;58809;47.984;7.964;2023-04-28T05:29:05;96927.16;;;12.66;100.00
43701;BME280;58809;47.984;7.964;2023-04-28T05:32:07;96929.00;;;12.73;100.00
43701;BME280;58809;47.984;7.964;2023-04-28T05:35:08;96931.69;;;12.79;100.00
43701;BME280;58809;47.984;7.964;2023-04-28T05:38:10;96922.72;;;12.80;100.00
43701;BME280;58809;47.984;7.964;2023-04-28T05:41:12;96941.50;;;12.79;100.00
43701;BME280;58809;47.984;7.964;2023-04-28T05:44:14;96930.88;;;12.85;100.00
43701;BME280;58809;47.984;7.964;2023-04-28T05:47:16;96934.13;;;12.87;100.00
43701;BME280;58809;47.984;7.964;2023-04-28T05:50:17;96929.25;;;12.84;100.00
43701;BME280;58809;47.984;7.964;2023-04-28T05:53:19;96934.13;;;12.87;100.00
43701;BME280;58809;47.984;7.964;2023-04-28T05:56:22;96941.28;;;12.87;100.00
43701;BME280;58809;47.984;7.964;2023-04-28T05:59:23;96935.19;;;12.86;100.00
43701;BME280;58809;47.984;7.964;2023-04-28T06:02:25;96934.78;;;12.89;100.00
43701;BME280;58809;47.984;7.964;2023-04-28T06:05:29;96928.66;;;12.96;100.00
43701;BME280;58809;47.984;7.964;2023-04-28T06:08:31;96940.72;;;13.05;100.00
43701;BME280;58809;47.984;7.964;2023-04-28T06:11:33;96933.34;;;13.07;100.00
43701;BME280;58809;47.984;7.964;2023-04-28T06:14:34;96936.81;;;13.07;100.00
43701;BME280;58809;47.984;7.964;2023-04-28T06:17:38;96936.63;;;13.09;100.00
43701;BME280;58809;47.984;7.964;2023-04-28T06:20:40;96952.78;;;13.14;100.00
43701;BME280;58809;47.984;7.964;2023-04-28T06:23:42;96963.00;;;13.17;100.00
43701;BME280;58809;47.984;7.964;2023-04-28T06:26:44;96942.97;;;13.15;100.00
43701;BME280;58809;47.984;7.964;2023-04-28T06:29:45;96933.16;;;13.15;100.00
43701;BME280;58809;47.984;7.964;2023-04-28T06:32:47;96948.06;;;13.16;100.00
43701;BME280;58809;47.984;7.964;2023-04-28T06:35:49;96951.75;;;13.15;100.00
43701;BME280;58809;47.984;7.964;2023-04-28T06:38:51;96949.50;;;13.05;100.00
43701;BME280;58809;47.984;7.964;2023-04-28T06:41:52;96949.69;;;12.97;100.00
43701;BME280;58809;47.984;7.964;2023-04-28T06:44:56;96951.13;;;13.00;100.00
43701;BME280;58809;47.984;7.964;2023-04-28T06:47:57;96942.56;;;13.04;100.00
43701;BME280;58809;47.984;7.964;2023-04-28T06:50:59;96956.03;;;13.03;100.00
43701;BME280;58809;47.984;7.964;2023-04-28T06:54:01;96962.56;;;12.94;100.00
43701;BME280;58809;47.984;7.964;2023-04-28T06:57:02;96971.75;;;12.84;100.00
43701;BME280;58809;47.984;7.964;2023-04-28T07:00:04;96986.44;;;12.80;100.00
43701;BME280;58809;47.984;7.964;2023-04-28T07:03:06;96983.34;;;12.70;100.00
43701;BME280;58809;47.984;7.964;2023-04-28T07:06:09;96999.75;;;12.39;100.00
43701;BME280;58809;47.984;7.964;2023-04-28T07:09:11;96984.72;;;12.11;100.00
43701;BME280;58809;47.984;7.964;2023-04-28T07:12:13;96993.22;;;12.00;100.00
43701;BME280;58809;47.984;7.964;2023-04-28T07:15:15;96988.75;;;12.00;100.00
43701;BME280;58809;47.984;7.964;2023-04-28T07:18:16;96986.47;;;11.97;100.00
43701;BME280;58809;47.984;7.964;2023-04-28T07:21:18;96981.59;;;12.01;100.00
43701;BME280;58809;47.984;7.964;2023-04-28T07:24:21;96985.25;;;12.00;100.00
43701;BME280;58809;47.984;7.964;2023-04-28T07:27:23;96978.16;;;12.00;100.00
43701;BME280;58809;47.984;7.964;2023-04-28T07:30:25;96980.19;;;12.05;100.00
43701;BME280;58809;47.984;7.964;2023-04-28T07:33:28;96987.56;;;12.09;100.00
43701;BME280;58809;47.984;7.964;2023-04-28T07:36:30;96995.34;;;12.11;100.00
43701;BME280;58809;47.984;7.964;2023-04-28T07:39:32;96992.50;;;12.12;100.00
43701;BME280;58809;47.984;7.964;2023-04-28T07:42:35;96990.47;;;12.21;100.00
43701;BME280;58809;47.984;7.964;2023-04-28T07:45:38;96985.22;;;12.28;100.00
43701;BME280;58809;47.984;7.964;2023-04-28T07:48:40;96987.69;;;12.36;100.00
43701;BME280;58809;47.984;7.964;2023-04-28T07:51:42;96990.63;;;12.48;100.00
43701;BME280;58809;47.984;7.964;2023-04-28T07:54:43;96985.72;;;12.51;100.00
43701;BME280;58809;47.984;7.964;2023-04-28T07:57:44;96989.00;;;12.54;100.00
43701;BME280;58809;47.984;7.964;2023-04-28T08:00:46;96990.84;;;12.53;100.00
43701;BME280;58809;47.984;7.964;2023-04-28T08:03:48;96983.03;;;12.45;100.00
43701;BME280;58809;47.984;7.964;2023-04-28T08:06:50;96985.72;;;12.51;100.00
43701;BME280;58809;47.984;7.964;2023-04-28T08:09:51;96991.28;;;12.63;100.00
43701;BME280;58809;47.984;7.964;2023-04-28T08:12:54;96997.69;;;12.82;100.00
43701;BME280;58809;47.984;7.964;2023-04-28T08:15:55;96988.31;;;12.93;100.00
43701;BME280;58809;47.984;7.964;2023-04-28T08:18:57;96994.44;;;12.94;100.00
43701;BME280;58809;47.984;7.964;2023-04-28T08:22:00;96999.31;;;12.97;100.00
43701;BME280;58809;47.984;7.964;2023-04-28T08:25:06;96994.44;;;13.00;100.00
43701;BME280;58809;47.984;7.964;2023-04-28T08:28:08;96998.94;;;13.00;100.00
43701;BME280;58809;47.984;7.964;2023-04-28T08:31:10;97001.19;;;13.09;100.00
43701;BME280;58809;47.984;7.964;2023-04-28T08:34:12;97005.09;;;13.14;100.00
43701;BME280;58809;47.984;7.964;2023-04-28T08:37:16;97012.66;;;13.17;100.00
43701;BME280;58809;47.984;7.964;2023-04-28T08:40:18;97024.31;;;13.29;100.00
43701;BME280;58809;47.984;7.964;2023-04-28T08:43:19;97035.19;;;13.34;100.00
43701;BME280;58809;47.984;7.964;2023-04-28T08:46:22;97043.56;;;13.31;100.00
43701;BME280;58809;47.984;7.964;2023-04-28T08:49:33;97048.44;;;13.27;100.00
43701;BME280;58809;47.984;7.964;2023-04-28T08:52:35;97053.38;;;13.31;100.00
43701;BME280;58809;47.984;7.964;2023-04-28T08:55:37;97060.72;;;13.35;100.00
43701;BME280;58809;47.984;7.964;2023-04-28T08:58:39;97053.44;;;13.57;100.00
43701;BME280;58809;47.984;7.964;2023-04-28T09:01:40;97042.38;;;13.87;100.00
43701;BME280;58809;47.984;7.964;2023-04-28T09:04:42;97042.75;;;14.11;100.00
43701;BME280;58809;47.984;7.964;2023-04-28T09:07:45;97044.28;;;14.45;100.00
43701;BME280;58809;47.984;7.964;2023-04-28T09:10:47;97043.44;;;14.71;100.00
43701;BME280;58809;47.984;7.964;2023-04-28T09:13:48;97035.66;;;14.63;100.00
43701;BME280;58809;47.984;7.964;2023-04-28T09:16:50;97047.16;;;14.63;100.00
43701;BME280;58809;47.984;7.964;2023-04-28T09:19:52;97047.56;;;14.60;100.00
43701;BME280;58809;47.984;7.964;2023-04-28T09:22:55;97050.63;;;14.57;100.00
43701;BME280;58809;47.984;7.964;2023-04-28T09:26:04;97052.25;;;14.65;100.00
43701;BME280;58809;47.984;7.964;2023-04-28T09:29:12;97048.50;;;14.86;100.00
43701;BME280;58809;47.984;7.964;2023-04-28T09:32:21;97048.00;;;15.02;100.00
43701;BME280;58809;47.984;7.964;2023-04-28T09:35:40;97062.22;;;14.83;100.00
43701;BME280;58809;47.984;7.964;2023-04-28T09:38:44;97067.22;;;14.66;100.00
43701;BME280;58809;47.984;7.964;2023-04-28T09:41:46;97058.41;;;14.66;100.00
43701;BME280;58809;47.984;7.964;2023-04-28T09:44:53;97060.16;;;14.92;100.00
43701;BME280;58809;47.984;7.964;2023-04-28T09:48:08;97056.00;;;15.02;100.00
43701;BME280;58809;47.984;7.964;2023-04-28T09:51:11;97063.66;;;14.86;100.00
43701;BME280;58809;47.984;7.964;2023-04-28T09:54:14;97065.56;;;14.72;100.00
43701;BME280;58809;47.984;7.964;2023-04-28T09:57:17;97071.69;;;14.72;100.00
43701;BME280;58809;47.984;7.964;2023-04-28T10:00:19;97061.75;;;14.99;100.00
43701;BME280;58809;47.984;7.964;2023-04-28T10:03:24;97057.88;;;15.34;100.00
43701;BME280;58809;47.984;7.964;2023-04-28T10:06:29;97068.63;;;15.52;100.00
43701;BME280;58809;47.984;7.964;2023-04-28T10:09:31;97064.75;;;15.48;100.00
43701;BME280;58809;47.984;7.964;2023-04-28T10:12:33;97064.75;;;15.48;100.00
43701;BME280;58809;47.984;7.964;2023-04-28T10:15:35;97067.22;;;15.50;100.00
43701;BME280;58809;47.984;7.964;2023-04-28T10:18:37;97077.09;;;15.43;100.00
43701;BME280;58809;47.984;7.964;2023-04-28T10:21:44;97072.91;;;15.21;100.00
43701;BME280;58809;47.984;7.964;2023-04-28T10:25:07;97065.56;;;15.17;100.00
43701;BME280;58809;47.984;7.964;2023-04-28T10:28:13;97062.53;;;15.38;100.00
43701;BME280;58809;47.984;7.964;2023-04-28T10:31:19;97054.41;;;15.90;100.00
43701;BME280;58809;47.984;7.964;2023-04-28T10:34:22;97060.22;;;16.06;100.00
43701;BME280;58809;47.984;7.964;2023-04-28T10:41:30;97063.22;;;16.71;100.00
43701;BME280;58809;47.984;7.964;2023-04-28T10:47:59;97055.34;;;17.13;100.00
43701;BME280;58809;47.984;7.964;2023-04-28T10:54:08;97052.47;;;16.78;100.00
43701;BME280;58809;47.984;7.964;2023-04-28T10:57:17;97046.63;;;16.88;100.00
43701;BME280;58809;47.984;7.964;2023-04-28T11:00:26;97041.09;;;17.31;100.00
43701;BME280;58809;47.984;7.964;2023-04-28T11:06:45;97048.13;;;18.10;97.62
43701;BME280;58809;47.984;7.964;2023-04-28T11:09:47;97044.88;;;18.32;94.30
43701;BME280;58809;47.984;7.964;2023-04-28T11:13:27;97052.22;;;18.77;88.28
43701;BME280;58809;47.984;7.964;2023-04-28T11:16:32;97044.19;;;18.89;87.87
43701;BME280;58809;47.984;7.964;2023-04-28T11:19:39;97031.22;;;18.97;85.96
43701;BME280;58809;47.984;7.964;2023-04-28T11:22:41;97035.25;;;18.83;86.59
43701;BME280;58809;47.984;7.964;2023-04-28T11:25:55;97035.81;;;18.85;86.39
43701;BME280;58809;47.984;7.964;2023-04-28T11:28:58;97030.41;;;18.97;86.58
43701;BME280;58809;47.984;7.964;2023-04-28T11:32:00;97025.81;;;19.09;86.08
43701;BME280;58809;47.984;7.964;2023-04-28T11:35:02;97025.16;;;19.48;83.94
43701;BME280;58809;47.984;7.964;2023-04-28T11:38:05;97031.84;;;19.62;83.34
43701;BME280;58809;47.984;7.964;2023-04-28T11:41:06;97032.19;;;19.83;82.76
43701;BME280;58809;47.984;7.964;2023-04-28T11:44:12;97019.75;;;19.93;79.78
43701;BME280;58809;47.984;7.964;2023-04-28T11:47:14;97023.72;;;20.08;79.36
43701;BME280;58809;47.984;7.964;2023-04-28T11:50:15;97023.22;;;20.28;78.29
43701;BME280;58809;47.984;7.964;2023-04-28T11:53:17;97016.25;;;19.93;78.53
43701;BME280;58809;47.984;7.964;2023-04-28T11:56:19;97009.72;;;20.06;78.66
43701;BME280;58809;47.984;7.964;2023-04-28T11:59:29;97012.94;;;20.25;76.97
43701;BME280;58809;47.984;7.964;2023-04-28T12:02:32;97012.53;;;20.55;73.99
43701;BME280;58809;47.984;7.964;2023-04-28T12:05:34;97010.25;;;20.25;72.55
43701;BME280;58809;47.984;7.964;2023-04-28T12:08:39;97003.75;;;20.21;71.77
43701;BME280;58809;47.984;7.964;2023-04-28T12:11:51;96992.81;;;20.49;70.02
43701;BME280;58809;47.984;7.964;2023-04-28T12:14:59;96996.47;;;20.60;68.56
43701;BME280;58809;47.984;7.964;2023-04-28T12:18:09;96981.50;;;20.86;66.31
43701;BME280;58809;47.984;7.964;2023-04-28T12:21:19;96988.19;;;21.11;66.99
43701;BME280;58809;47.984;7.964;2023-04-28T12:24:21;96983.91;;;21.42;65.44
43701;BME280;58809;47.984;7.964;2023-04-28T12:27:24;96989.19;;;21.32;64.98
43701;BME280;58809;47.984;7.964;2023-04-28T12:30:27;96993.06;;;21.41;64.34
43701;BME280;58809;47.984;7.964;2023-04-28T12:33:29;96983.97;;;21.80;63.43
43701;BME280;58809;47.984;7.964;2023-04-28T12:36:31;96995.09;;;22.36;62.47
43701;BME280;58809;47.984;7.964;2023-04-28T12:39:33;96996.44;;;22.34;61.46
43701;BME280;58809;47.984;7.964;2023-04-28T12:42:40;96991.88;;;21.97;62.10
43701;BME280;58809;47.984;7.964;2023-04-28T12:45:41;97011.06;;;21.68;62.96
43701;BME280;58809;47.984;7.964;2023-04-28T12:48:43;96983.22;;;21.25;63.83
43701;BME280;58809;47.984;7.964;2023-04-28T12:51:45;96980.47;;;20.92;64.83
43701;BME280;58809;47.984;7.964;2023-04-28T12:54:47;96980.16;;;20.89;65.55
43701;BME280;58809;47.984;7.964;2023-04-28T12:57:49;96979.94;;;21.23;65.07
43701;BME280;58809;47.984;7.964;2023-04-28T13:00:50;96971.91;;;21.55;64.05
43701;BME280;58809;47.984;7.964;2023-04-28T13:03:52;96968.84;;;21.41;62.87
43701;BME280;58809;47.984;7.964;2023-04-28T13:06:54;96967.06;;;20.98;63.90
43701;BME280;58809;47.984;7.964;2023-04-28T13:09:55;96973.09;;;21.10;63.90
43701;BME280;58809;47.984;7.964;2023-04-28T13:12:57;96979.94;;;21.23;63.43
43701;BME280;58809;47.984;7.964;2023-04-28T13:15:58;96975.19;;;20.58;65.05
43701;BME280;58809;47.984;7.964;2023-04-28T13:19:01;96966.03;;;20.54;64.21
43701;BME280;58809;47.984;7.964;2023-04-28T13:22:03;96958.28;;;20.80;63.64
43701;BME280;58809;47.984;7.964;2023-04-28T13:25:07;96966.53;;;20.95;63.13
43701;BME280;58809;47.984;7.964;2023-04-28T13:28:09;96950.78;;;21.09;62.01
43701;BME280;58809;47.984;7.964;2023-04-28T13:31:11;96965.97;;;21.85;60.44
43701;BME280;58809;47.984;7.964;2023-04-28T13:34:13;96948.06;;;22.11;58.98
43701;BME280;58809;47.984;7.964;2023-04-28T13:37:19;96963.13;;;22.07;59.14
43701;BME280;58809;47.984;7.964;2023-04-28T13:40:20;96950.06;;;21.84;60.07
43701;BME280;58809;47.984;7.964;2023-04-28T13:43:22;96958.06;;;21.73;60.07
43701;BME280;58809;47.984;7.964;2023-04-28T13:46:23;96941.34;;;21.39;60.90
43701;BME280;58809;47.984;7.964;2023-04-28T13:49:25;96933.34;;;21.82;59.46
43701;BME280;58809;47.984;7.964;2023-04-28T13:52:26;96933.31;;;22.24;58.73
43701;BME280;58809;47.984;7.964;2023-04-28T13:55:28;96934.06;;;22.15;58.90
43701;BME280;58809;47.984;7.964;2023-04-28T13:58:30;96927.56;;;22.05;60.04
43701;BME280;58809;47.984;7.964;2023-04-28T14:01:31;96926.75;;;21.62;60.51
43701;BME280;58809;47.984;7.964;2023-04-28T14:04:33;96928.19;;;21.10;61.60
43701;BME280;58809;47.984;7.964;2023-04-28T14:07:35;96942.63;;;21.04;62.18
43701;BME280;58809;47.984;7.964;2023-04-28T14:10:36;96922.41;;;20.96;62.73
43701;BME280;58809;47.984;7.964;2023-04-28T14:13:38;96923.97;;;20.92;63.43
43701;BME280;58809;47.984;7.964;2023-04-28T14:16:39;96914.44;;;21.07;63.12
43701;BME280;58809;47.984;7.964;2023-04-28T14:19:41;96920.22;;;21.53;61.99
43701;BME280;58809;47.984;7.964;2023-04-28T14:22:42;96903.34;;;21.68;62.01
43701;BME280;58809;47.984;7.964;2023-04-28T14:25:44;96907.97;;;21.78;61.52
43701;BME280;58809;47.984;7.964;2023-04-28T14:28:45;96904.53;;;21.45;61.38
43701;BME280;58809;47.984;7.964;2023-04-28T14:31:48;96901.53;;;21.09;62.28
43701;BME280;58809;47.984;7.964;2023-04-28T14:34:49;96902.59;;;21.08;62.13
43701;BME280;58809;47.984;7.964;2023-04-28T14:37:51;96906.38;;;20.80;62.49
43701;BME280;58809;47.984;7.964;2023-04-28T14:40:53;96915.06;;;20.87;62.47
43701;BME280;58809;47.984;7.964;2023-04-28T14:43:55;96907.28;;;20.63;62.48
43701;BME280;58809;47.984;7.964;2023-04-28T14:46:57;96910.13;;;20.56;63.03
43701;BME280;58809;47.984;7.964;2023-04-28T14:49:59;96912.53;;;20.31;63.52
43701;BME280;58809;47.984;7.964;2023-04-28T14:53:01;96907.41;;;20.29;64.12
43701;BME280;58809;47.984;7.964;2023-04-28T14:56:07;96916.72;;;20.66;63.31
43701;BME280;58809;47.984;7.964;2023-04-28T14:59:19;96895.72;;;21.22;62.15
43701;BME280;58809;47.984;7.964;2023-04-28T15:02:21;96912.09;;;21.48;61.16
43701;BME280;58809;47.984;7.964;2023-04-28T15:05:28;96907.72;;;21.42;60.87
43701;BME280;58809;47.984;7.964;2023-04-28T15:08:31;96889.72;;;21.85;60.65
43701;BME280;58809;47.984;7.964;2023-04-28T15:11:33;96899.50;;;21.96;60.24
43701;BME280;58809;47.984;7.964;2023-04-28T15:14:34;96892.44;;;21.90;60.29
43701;BME280;58809;47.984;7.964;2023-04-28T15:17:36;96892.63;;;21.41;61.48
43701;BME280;58809;47.984;7.964;2023-04-28T15:20:38;96884.94;;;20.90;62.36
43701;BME280;58809;47.984;7.964;2023-04-28T15:23:39;96899.94;;;20.31;64.23
43701;BME280;58809;47.984;7.964;2023-04-28T15:26:41;96886.78;;;19.91;65.21
43701;BME280;58809;47.984;7.964;2023-04-28T15:29:43;96889.59;;;19.45;66.53
43701;BME280;58809;47.984;7.964;2023-04-28T15:32:45;96882.28;;;19.40;67.47
43701;BME280;58809;47.984;7.964;2023-04-28T15:35:46;96884.53;;;19.49;67.47
43701;BME280;58809;47.984;7.964;2023-04-28T15:38:48;96886.34;;;19.43;67.47
43701;BME280;58809;47.984;7.964;2023-04-28T15:41:52;96881.06;;;19.48;67.51
43701;BME280;58809;47.984;7.964;2023-04-28T15:44:53;96874.75;;;19.93;65.57
43701;BME280;58809;47.984;7.964;2023-04-28T15:47:55;96870.72;;;20.40;64.46
43701;BME280;58809;47.984;7.964;2023-04-28T15:50:56;96876.09;;;20.40;63.87
43701;BME280;58809;47.984;7.964;2023-04-28T15:53:58;96862.56;;;19.86;65.28
43701;BME280;58809;47.984;7.964;2023-04-28T15:57:00;96874.97;;;19.53;66.31
43701;BME280;58809;47.984;7.964;2023-04-28T16:00:02;96866.69;;;19.37;66.67
43701;BME280;58809;47.984;7.964;2023-04-28T16:03:08;96857.41;;;19.45;66.63
43701;BME280;58809;47.984;7.964;2023-04-28T16:06:09;96863.84;;;19.27;67.58
43701;BME280;58809;47.984;7.964;2023-04-28T16:09:11;96866.28;;;19.12;67.83
43701;BME280;58809;47.984;7.964;2023-04-28T16:12:13;96862.22;;;18.92;67.81
43701;BME280;58809;47.984;7.964;2023-04-28T16:15:14;96855.31;;;18.96;67.50
43701;BME280;58809;47.984;7.964;2023-04-28T16:18:16;96847.19;;;19.08;67.50
43701;BME280;58809;47.984;7.964;2023-04-28T16:21:18;96847.19;;;19.08;67.74
43701;BME280;58809;47.984;7.964;2023-04-28T16:24:19;96863.13;;;19.15;67.89
43701;BME280;58809;47.984;7.964;2023-04-28T16:27:22;96867.41;;;19.16;67.81